Bookmark and Share
Track history (hours):
 

Arklow Raider

Last reported at 2014-Apr-25 05:33 UTC. Time now 2014-Apr-25 06:17 UTC.
Position N 51°17' E 004°20'.

Length 90 m; draft 6 m.

Type: Cargo ship. MMSI: 250001268.

NotesDate/timePositionNaut miles runAvg speedWind from/ knotsBaromVisibWave heightAir tempDewpointWater temp
2014-Apr-25 05:33N 51°17' E 004°20'0 0.0
2014-Apr-25 04:33N 51°17' E 004°20'0 0.0
2014-Apr-25 03:33N 51°17' E 004°20'0 0.0
2014-Apr-25 02:33N 51°17' E 004°20'0 0.0
2014-Apr-25 01:33N 51°17' E 004°20'0 0.0
2014-Apr-25 00:33N 51°17' E 004°20'0 0.0
2014-Apr-24 23:33N 51°17' E 004°20'0 0.0
2014-Apr-24 22:33N 51°17' E 004°20'0 0.0
2014-Apr-24 21:33N 51°17' E 004°20'0 0.0
2014-Apr-24 20:30N 51°17' E 004°20'0 0.0
2014-Apr-24 19:30N 51°17' E 004°20'0 0.0
2014-Apr-24 18:33N 51°17' E 004°20'0 0.0
2014-Apr-24 17:33N 51°17' E 004°20'0 0.0
2014-Apr-24 16:33N 51°17' E 004°20'1 0.8
2014-Apr-24 15:33N 51°16' E 004°21'2 1.5
2014-Apr-24 14:28N 51°15' E 004°22'0 0.0
2014-Apr-24 13:31N 51°15' E 004°22'0 0.0
2014-Apr-24 12:31N 51°15' E 004°22'0 0.0
2014-Apr-24 11:31N 51°15' E 004°22'0 0.0
2014-Apr-24 10:31N 51°15' E 004°22'0 0.0
2014-Apr-24 09:31N 51°15' E 004°22'0 0.0
2014-Apr-24 08:31N 51°15' E 004°22'0 0.0
2014-Apr-24 07:31N 51°15' E 004°22'0 0.0
2014-Apr-24 06:31N 51°15' E 004°22'0 0.0
2014-Apr-24 05:31N 51°15' E 004°22'0 0.0
2014-Apr-24 04:28N 51°15' E 004°22'0 0.0
2014-Apr-24 03:31N 51°15' E 004°22'0 0.0
2014-Apr-24 02:31N 51°15' E 004°22'0 0.0
2014-Apr-24 01:31N 51°15' E 004°22'0 0.0
2014-Apr-24 00:31N 51°15' E 004°22'0 0.0
2014-Apr-23 23:31N 51°15' E 004°22'0 0.0
2014-Apr-23 22:31N 51°15' E 004°22'0 0.0
2014-Apr-23 21:31N 51°15' E 004°22'0 0.0
2014-Apr-23 20:31N 51°15' E 004°22'0 0.0
2014-Apr-23 19:31N 51°15' E 004°22'0 0.0
2014-Apr-23 18:31N 51°15' E 004°22'0 0.0
2014-Apr-23 17:31N 51°15' E 004°22'0 0.0
2014-Apr-23 16:31N 51°15' E 004°22'0 0.0
2014-Apr-23 15:31N 51°15' E 004°22'0 0.0
2014-Apr-23 14:31N 51°15' E 004°22'0 0.0
2014-Apr-23 13:31N 51°15' E 004°22'0 0.0
2014-Apr-23 12:31N 51°15' E 004°22'0 0.0
2014-Apr-23 11:31N 51°15' E 004°22'0 0.0
2014-Apr-23 10:31N 51°15' E 004°22'0 0.0
2014-Apr-23 09:31N 51°15' E 004°22'0 0.0
2014-Apr-23 08:31N 51°15' E 004°22'0 0.0
2014-Apr-23 07:33N 51°15' E 004°22'2 2.1
2014-Apr-23 06:34N 51°17' E 004°20'1 0.9
2014-Apr-23 05:33N 51°17' E 004°19'2 1.7
2014-Apr-23 04:33N 51°18' E 004°17'7 6.6
2014-Apr-23 03:33N 51°24' E 004°11'8 8.0
2014-Apr-23 02:33N 51°25' E 003°58'9 8.8
2014-Apr-23 01:34N 51°22' E 003°45'8 8.0
2014-Apr-23 00:34N 51°25' E 003°33'9 9.5
2014-Apr-22 23:34N 51°24' E 003°18'10 9.8
2014-Apr-22 22:33N 51°24' E 003°02'1111.0
2014-Apr-22 21:33N 51°22' E 002°45'8 8.3
2014-Apr-22 20:33N 51°22' E 002°32'1110.6
2014-Apr-22 19:33N 51°17' E 002°16'1313.0
2014-Apr-22 18:34N 51°11' E 001°58'1713.8
2014-Apr-22 17:18N 51°01' E 001°35'2312.8
2014-Apr-22 15:32N 50°42' E 001°18'1612.8
2014-Apr-22 14:16N 50°32' E 000°57'912.7
2014-Apr-22 13:33N 50°29' E 000°44'1313.0
2014-Apr-22 12:33N 50°25' E 000°24'4411.0
2014-Apr-22 08:33N 50°22' W 000°45'9 9.2
2014-Apr-22 07:33N 50°26' W 000°58'9 9.2
2014-Apr-22 06:33N 50°25' W 001°12'9 8.9
2014-Apr-22 05:31N 50°23' W 001°26'1010.0
2014-Apr-22 04:33N 50°20' W 001°41'212 6.6
2014-Apr-20 20:12N 52°58' W 005°30'710.5
2014-Apr-20 19:32N 53°04' W 005°34'4110.4
2014-Apr-20 15:33N 53°41' W 006°06'5 0.1
2014-Apr-18 22:32N 53°43' W 006°13'1 0.9
2014-Apr-18 21:13N 53°44' W 006°11'0 0.0
2014-Apr-18 20:31N 53°44' W 006°11'0 0.0
2014-Apr-18 19:28N 53°44' W 006°11'0 0.0
2014-Apr-18 18:16N 53°44' W 006°11'0 0.0
2014-Apr-18 15:22N 53°44' W 006°11'4 5.2
2014-Apr-18 14:33N 53°40' W 006°08'19 9.4
2014-Apr-18 12:29N 53°20' W 006°07'4 4.0
2014-Apr-18 11:31N 53°21' W 006°13'0 0.0
2014-Apr-18 10:31N 53°21' W 006°13'0 0.0
2014-Apr-18 09:34N 53°21' W 006°13'0 0.0
2014-Apr-18 08:31N 53°21' W 006°13'0 0.0
2014-Apr-18 07:31N 53°21' W 006°13'0 0.0
2014-Apr-18 06:31N 53°21' W 006°13'0 0.0
2014-Apr-18 05:31N 53°21' W 006°13'0 0.0
2014-Apr-18 04:31N 53°21' W 006°13'0 0.0
2014-Apr-18 03:34N 53°21' W 006°13'0 0.0
2014-Apr-18 02:33N 53°21' W 006°13'0 0.0
2014-Apr-18 01:31N 53°21' W 006°13'0 0.0
2014-Apr-18 00:25N 53°21' W 006°13'0 0.0
2014-Apr-17 23:31N 53°21' W 006°13'0 0.0
2014-Apr-17 22:31N 53°21' W 006°13'0 0.0
2014-Apr-17 21:34N 53°21' W 006°13'0 0.0
2014-Apr-17 20:31N 53°21' W 006°13'0 0.0
2014-Apr-17 19:31N 53°21' W 006°13'0 0.0
2014-Apr-17 18:31N 53°21' W 006°13'0 0.0
2014-Apr-17 17:31N 53°21' W 006°13'0 0.0
2014-Apr-17 16:34N 53°21' W 006°13'0 0.0
2014-Apr-17 15:33N 53°21' W 006°13'0 0.0
2014-Apr-17 14:31N 53°21' W 006°13'0 0.0
2014-Apr-17 13:25N 53°21' W 006°13'0 0.0
2014-Apr-17 12:31N 53°21' W 006°13'0 0.0
2014-Apr-17 11:31N 53°21' W 006°13'0 0.0
2014-Apr-17 10:31N 53°21' W 006°13'0 0.0
2014-Apr-17 09:25N 53°21' W 006°13'0 0.0
2014-Apr-17 08:31N 53°21' W 006°13'0 0.0
2014-Apr-17 07:34N 53°21' W 006°13'0 0.0
2014-Apr-17 06:31N 53°21' W 006°13'0 0.0
2014-Apr-17 05:28N 53°21' W 006°13'0 0.0
2014-Apr-17 04:34N 53°21' W 006°13'0 0.0
2014-Apr-17 03:33N 53°21' W 006°13'0 0.0
2014-Apr-17 02:34N 53°21' W 006°13'0 0.0
2014-Apr-17 01:25N 53°21' W 006°13'0 0.0
2014-Apr-17 00:31N 53°21' W 006°13'0 0.0
2014-Apr-16 23:31N 53°21' W 006°13'0 0.0
2014-Apr-16 22:31N 53°21' W 006°13'0 0.0
2014-Apr-16 21:31N 53°21' W 006°13'0 0.0
2014-Apr-16 20:31N 53°21' W 006°13'0 0.0
2014-Apr-16 19:31N 53°21' W 006°13'0 0.0
2014-Apr-16 18:25N 53°21' W 006°13'0 0.0
2014-Apr-16 17:31N 53°21' W 006°13'0 0.0
2014-Apr-16 16:31N 53°21' W 006°13'0 0.0
2014-Apr-16 15:31N 53°21' W 006°13'0 0.0
2014-Apr-16 14:34N 53°21' W 006°13'0 0.0
2014-Apr-16 13:23N 53°21' W 006°13'0 0.0
2014-Apr-16 12:25N 53°21' W 006°13'0 0.0
2014-Apr-16 11:31N 53°21' W 006°13'0 0.0
2014-Apr-16 10:31N 53°21' W 006°13'0 0.0
2014-Apr-16 09:19N 53°21' W 006°13'0 0.0
2014-Apr-16 08:25N 53°21' W 006°13'0 0.0
2014-Apr-16 07:34N 53°21' W 006°13'0 0.0
2014-Apr-16 06:34N 53°21' W 006°13'0 0.0
2014-Apr-16 05:31N 53°21' W 006°13'0 0.0
2014-Apr-16 04:34N 53°21' W 006°13'0 0.0
2014-Apr-16 03:34N 53°21' W 006°13'0 0.0
2014-Apr-16 02:31N 53°21' W 006°13'0 0.0
2014-Apr-16 01:10N 53°21' W 006°13'0 0.0
2014-Apr-15 21:04N 53°21' W 006°13'0 0.0
2014-Apr-15 20:33N 53°21' W 006°13'0 0.0
2014-Apr-15 19:21N 53°21' W 006°13'0 0.0
2014-Apr-15 18:28N 53°21' W 006°13'0 0.0
2014-Apr-15 17:33N 53°21' W 006°13'0 0.0
2014-Apr-15 16:28N 53°21' W 006°13'0 0.0
2014-Apr-15 15:28N 53°21' W 006°13'  

Dump ship's entire track history

sailing weather and tide predictions

Arklow Raider — EIXS — position and weather